createdAt,value
2018-07-19T00:00:13.826Z,3.25
2018-07-19T00:02:41.144Z,3.50
2018-07-19T00:05:08.516Z,3.42
2018-07-19T00:07:44.335Z,3.00
2018-07-19T00:10:16.358Z,3.95
2018-07-19T00:12:47.889Z,3.47
2018-07-19T00:15:16.091Z,3.20
2018-07-19T00:17:43.638Z,3.80
2018-07-19T00:20:11.269Z,3.47
2018-07-19T00:22:38.608Z,4.30
2018-07-19T00:25:06.024Z,3.20
2018-07-19T00:27:34.698Z,3.80
2018-07-19T00:30:02.464Z,3.60
2018-07-19T00:32:30.891Z,3.65
2018-07-19T00:35:02.852Z,3.60
2018-07-19T00:37:30.295Z,3.47
2018-07-19T00:40:06.900Z,3.65
2018-07-19T00:42:34.332Z,3.67
2018-07-19T00:45:01.792Z,4.03
2018-07-19T00:47:29.170Z,3.98
2018-07-19T00:49:56.575Z,3.85
2018-07-19T00:52:23.980Z,3.98
2018-07-19T00:54:51.948Z,4.00
2018-07-19T00:57:19.897Z,3.87
2018-07-19T00:59:47.956Z,4.33
2018-07-19T01:02:16.815Z,3.85
2018-07-19T01:04:45.744Z,4.33
2018-07-19T01:07:14.150Z,3.70
2018-07-19T01:09:41.602Z,4.03
2018-07-19T01:12:09.067Z,3.70
2018-07-19T01:14:36.449Z,4.08
2018-07-19T01:17:05.098Z,3.67
2018-07-19T01:19:32.628Z,4.50
2018-07-19T01:22:04.609Z,4.35
2018-07-19T01:24:32.631Z,4.00
2018-07-19T01:27:02.618Z,4.33
2018-07-19T01:29:34.435Z,4.22
2018-07-19T01:32:01.801Z,4.03
2018-07-19T01:34:29.269Z,4.05
2018-07-19T01:37:01.158Z,4.37
2018-07-19T01:39:28.842Z,4.20
2018-07-19T01:42:10.898Z,4.30
2018-07-19T01:44:38.581Z,4.00
2018-07-19T01:47:06.631Z,4.83
2018-07-19T01:49:35.016Z,4.70
2018-07-19T01:52:02.487Z,4.25
2018-07-19T01:54:30.351Z,4.37
2018-07-19T01:56:57.666Z,4.50
2018-07-19T01:59:25.622Z,4.40
2018-07-19T02:01:54.630Z,5.30
2018-07-19T02:04:22.000Z,4.78
2018-07-19T02:06:49.781Z,5.10
2018-07-19T02:09:17.491Z,4.60
2018-07-19T02:11:45.322Z,4.70
2018-07-19T02:14:13.035Z,4.95
2018-07-19T02:16:41.022Z,4.65
2018-07-19T02:19:14.479Z,4.10
2018-07-19T02:21:42.803Z,4.60
2018-07-19T02:24:11.230Z,4.45
2018-07-19T02:26:39.316Z,4.90
2018-07-19T02:29:11.030Z,4.90
2018-07-19T02:31:38.984Z,4.50
2018-07-19T02:34:06.556Z,5.90
2018-07-19T02:36:35.976Z,5.30
2018-07-19T02:39:04.196Z,5.22
2018-07-19T02:41:31.718Z,5.62
2018-07-19T02:43:59.140Z,4.28
2018-07-19T02:46:27.615Z,5.08
2018-07-19T02:48:59.362Z,5.20
2018-07-19T02:51:26.931Z,6.15
2018-07-19T02:53:54.657Z,5.42
2018-07-19T02:56:22.314Z,5.35
2018-07-19T02:58:55.409Z,5.00
2018-07-19T03:01:23.066Z,5.25
2018-07-19T03:03:50.556Z,4.70
2018-07-19T03:06:18.179Z,4.70
2018-07-19T03:08:45.621Z,5.35
2018-07-19T03:11:13.269Z,5.30
2018-07-19T03:13:40.735Z,5.55
2018-07-19T03:16:09.173Z,5.78
2018-07-19T03:18:37.298Z,4.90
2018-07-19T03:21:05.111Z,5.45
2018-07-19T03:23:32.743Z,5.53
2018-07-19T03:26:00.198Z,6.10
2018-07-19T03:28:27.653Z,5.70
2018-07-19T03:30:56.479Z,5.17
2018-07-19T03:33:23.857Z,6.28
2018-07-19T03:35:51.328Z,5.78
2018-07-19T03:38:19.082Z,5.28
2018-07-19T03:40:46.850Z,6.53
2018-07-19T03:43:14.748Z,5.80
2018-07-19T03:45:42.141Z,5.83
2018-07-19T03:48:10.868Z,5.75
2018-07-19T03:50:38.746Z,5.97
2018-07-19T03:53:07.531Z,5.20
2018-07-19T03:55:39.630Z,4.85
2018-07-19T03:58:11.855Z,4.90
2018-07-19T04:00:40.027Z,5.10
2018-07-19T04:03:07.543Z,6.10
2018-07-19T04:05:35.517Z,5.00
2018-07-19T04:08:03.035Z,5.05
2018-07-19T04:10:35.240Z,5.33
2018-07-19T04:13:07.270Z,6.15
2018-07-19T04:15:36.499Z,4.50
2018-07-19T04:18:04.874Z,5.53
2018-07-19T04:20:33.230Z,5.95
2018-07-19T04:23:05.215Z,5.42
2018-07-19T04:25:32.956Z,5.62
2018-07-19T04:28:00.390Z,6.55
2018-07-19T04:30:32.312Z,5.45
2018-07-19T04:33:00.582Z,6.20
2018-07-19T04:35:27.952Z,5.50
2018-07-19T04:37:55.289Z,5.10
2018-07-19T04:40:23.695Z,6.55
2018-07-19T04:42:51.090Z,6.92
2018-07-19T04:45:19.147Z,5.55
2018-07-19T04:47:46.567Z,6.28
2018-07-19T04:50:14.010Z,5.70
2018-07-19T04:52:41.366Z,6.12
2018-07-19T04:55:09.448Z,5.70
2018-07-19T04:57:36.898Z,6.17
2018-07-19T05:00:05.617Z,5.47
2018-07-19T05:02:37.755Z,7.50
2018-07-19T05:05:05.599Z,5.65
2018-07-19T05:07:33.135Z,6.95
2018-07-19T05:10:02.101Z,5.47
2018-07-19T05:12:30.828Z,6.33
2018-07-19T05:15:01.267Z,5.92
2018-07-19T05:17:28.654Z,5.50
2018-07-19T05:19:57.375Z,5.22
2018-07-19T05:22:24.773Z,6.25
2018-07-19T05:24:52.217Z,5.95
2018-07-19T05:27:19.706Z,6.58
2018-07-19T05:29:47.116Z,6.12
2018-07-19T05:32:14.554Z,5.30
2018-07-19T05:34:42.184Z,5.97
2018-07-19T05:37:09.691Z,5.78
2018-07-19T05:39:37.110Z,5.92
2018-07-19T05:42:04.562Z,5.97
2018-07-19T05:44:32.800Z,5.40
2018-07-19T05:47:00.152Z,6.15
2018-07-19T05:49:27.616Z,6.05
2018-07-19T05:51:54.988Z,7.03
2018-07-19T05:54:23.514Z,6.73
2018-07-19T05:56:51.027Z,7.20
2018-07-19T05:59:18.406Z,6.53
2018-07-19T06:01:45.955Z,6.10
2018-07-19T06:04:13.317Z,6.20
2018-07-19T06:06:41.047Z,6.90
2018-07-19T06:09:09.877Z,6.37
2018-07-19T06:11:37.324Z,5.63
2018-07-19T06:14:04.989Z,5.30
2018-07-19T06:16:32.324Z,5.50
2018-07-19T06:19:00.391Z,6.77
2018-07-19T06:21:31.876Z,5.90
2018-07-19T06:23:59.358Z,6.13
2018-07-19T06:26:27.249Z,5.80
2018-07-19T06:28:54.657Z,5.40
2018-07-19T06:31:27.812Z,5.63
2018-07-19T06:33:55.335Z,5.10
2018-07-19T06:36:22.728Z,5.17
2018-07-19T06:38:50.135Z,4.20
2018-07-19T06:41:17.633Z,4.33
2018-07-19T06:43:44.979Z,4.00
2018-07-19T06:46:12.388Z,4.30
2018-07-19T06:48:41.079Z,3.40
2018-07-19T06:51:08.488Z,3.10
2018-07-19T06:53:35.906Z,3.10
2018-07-19T06:56:04.211Z,3.47
2018-07-19T06:58:31.506Z,2.70
2018-07-19T07:00:59.582Z,2.67
2018-07-19T07:03:26.903Z,2.60
2018-07-19T07:05:54.273Z,2.50
2018-07-19T07:08:21.595Z,2.97
2018-07-19T07:10:49.194Z,2.50
2018-07-19T07:13:16.551Z,2.83
2018-07-19T07:15:43.882Z,2.50
2018-07-19T07:18:11.194Z,2.10
2018-07-19T07:20:41.635Z,2.17
2018-07-19T07:23:08.942Z,3.13
2018-07-19T07:25:41.891Z,2.37
2018-07-19T07:28:09.184Z,2.77
2018-07-19T07:30:36.567Z,2.80
2018-07-19T07:33:04.034Z,2.90
2018-07-19T07:35:31.415Z,2.87
2018-07-19T07:37:58.839Z,2.60
2018-07-19T07:40:26.132Z,2.63
2018-07-19T07:42:54.042Z,2.77
2018-07-19T07:45:21.342Z,2.70
2018-07-19T07:47:48.737Z,2.60
2018-07-19T07:50:16.123Z,3.13
2018-07-19T07:52:43.496Z,3.10
2018-07-19T07:55:21.219Z,3.00
2018-07-19T07:57:48.555Z,2.67
2018-07-19T08:00:16.000Z,2.67
2018-07-19T08:02:43.312Z,3.10
2018-07-19T08:05:10.743Z,3.40
2018-07-19T08:07:38.031Z,2.50
2018-07-19T08:10:05.348Z,2.70
2018-07-19T08:12:32.655Z,3.63
2018-07-19T08:15:00.057Z,3.10
2018-07-19T08:17:27.429Z,2.77
2018-07-19T08:19:54.725Z,2.97
2018-07-19T08:22:22.114Z,2.70
2018-07-19T08:24:49.501Z,2.60
2018-07-19T08:27:16.785Z,2.57
2018-07-19T08:29:44.092Z,2.60
2018-07-19T08:32:11.396Z,2.50
2018-07-19T08:34:38.775Z,2.10
2018-07-19T08:37:06.092Z,2.50
2018-07-19T08:39:33.594Z,2.50
2018-07-19T08:42:01.135Z,2.53
2018-07-19T08:44:28.472Z,2.93
2018-07-19T08:46:55.772Z,2.50
2018-07-19T08:49:23.082Z,2.63
2018-07-19T08:51:50.553Z,3.07
2018-07-19T08:54:17.954Z,2.33
2018-07-19T08:56:45.313Z,2.47
2018-07-19T08:59:12.619Z,2.50
2018-07-19T09:01:39.981Z,2.53
2018-07-19T09:04:07.294Z,2.50
2018-07-19T09:06:35.126Z,3.00
2018-07-19T09:09:02.528Z,2.97
2018-07-19T09:11:29.883Z,3.10
2018-07-19T09:13:57.283Z,2.77
2018-07-19T09:16:24.554Z,2.80
2018-07-19T09:18:51.886Z,2.37
2018-07-19T09:21:19.223Z,2.77
2018-07-19T09:23:46.510Z,2.83
2018-07-19T09:26:14.525Z,3.00
2018-07-19T09:28:42.560Z,2.13
2018-07-19T09:31:09.980Z,2.70
2018-07-19T09:33:37.329Z,2.47
2018-07-19T09:36:04.674Z,2.73
2018-07-19T09:38:32.142Z,2.37
2018-07-19T09:40:59.445Z,2.73
2018-07-19T09:43:26.787Z,2.20
2018-07-19T09:45:54.771Z,2.60
2018-07-19T09:48:22.193Z,3.10
2018-07-19T09:50:49.483Z,3.03
2018-07-19T09:53:17.577Z,2.70
2018-07-19T09:55:45.715Z,2.73
2018-07-19T09:58:17.128Z,2.93
2018-07-19T10:00:49.882Z,2.90
2018-07-19T10:03:17.443Z,2.70
2018-07-19T10:05:44.856Z,3.00
2018-07-19T10:08:12.238Z,2.83
2018-07-19T10:10:40.225Z,3.10
2018-07-19T10:13:08.484Z,2.93
2018-07-19T10:15:35.845Z,2.83
2018-07-19T10:18:08.099Z,3.60
2018-07-19T10:20:35.683Z,2.93
2018-07-19T10:23:03.147Z,2.60
2018-07-19T10:25:31.491Z,2.80
2018-07-19T10:27:58.998Z,2.63
2018-07-19T10:30:26.410Z,2.93
2018-07-19T10:42:39.488Z,3.57
2018-07-19T10:45:07.391Z,3.00
2018-07-19T10:47:35.562Z,3.70
2018-07-19T10:50:02.967Z,3.10
2018-07-19T10:52:30.301Z,3.40
2018-07-19T10:54:57.632Z,3.47
2018-07-19T10:57:25.877Z,3.37
2018-07-19T10:59:53.171Z,2.80
2018-07-19T11:02:20.604Z,3.10
2018-07-19T11:04:48.085Z,3.10
2018-07-19T11:07:16.054Z,3.00
2018-07-19T11:09:45.395Z,3.47
2018-07-19T11:12:13.269Z,3.70
2018-07-19T11:14:40.685Z,2.73
2018-07-19T11:17:11.539Z,3.07
2018-07-19T11:19:38.859Z,3.17
2018-07-19T11:22:06.194Z,2.93
2018-07-19T11:24:33.603Z,2.97
2018-07-19T11:27:04.909Z,3.30
2018-07-19T11:29:32.331Z,3.83
2018-07-19T11:31:59.702Z,3.57
2018-07-19T11:34:27.170Z,3.30
2018-07-19T11:36:54.518Z,3.60
2018-07-19T11:39:22.514Z,3.13
2018-07-19T11:41:50.044Z,3.43
2018-07-19T11:44:17.551Z,3.37
2018-07-19T11:46:45.490Z,2.80
2018-07-19T11:49:12.930Z,2.70
2018-07-19T11:51:40.330Z,3.30
2018-07-19T11:54:07.647Z,2.90
2018-07-19T11:56:34.934Z,3.87
2018-07-19T11:59:02.287Z,3.13
2018-07-19T12:01:29.674Z,3.60
2018-07-19T12:03:57.086Z,3.80
2018-07-19T12:06:25.099Z,3.90
2018-07-19T12:08:52.432Z,3.80
2018-07-19T12:11:19.753Z,3.30
2018-07-19T12:13:47.115Z,3.60
2018-07-19T12:16:14.641Z,3.20
2018-07-19T12:18:41.943Z,3.27
2018-07-19T12:21:09.303Z,2.90
2018-07-19T12:23:36.583Z,3.07
2018-07-19T12:26:03.885Z,3.33
2018-07-19T12:28:31.217Z,3.20
2018-07-19T12:30:58.991Z,3.50
2018-07-19T12:33:26.313Z,3.10
2018-07-19T12:35:53.707Z,3.03
2018-07-19T12:38:21.014Z,3.57
2018-07-19T12:40:48.673Z,3.13
2018-07-19T12:43:16.177Z,3.77
2018-07-19T12:45:43.534Z,3.77
2018-07-19T12:48:11.089Z,3.13
2018-07-19T12:50:38.393Z,3.10
2018-07-19T12:53:05.754Z,3.30
2018-07-19T12:55:33.073Z,3.20
2018-07-19T12:58:00.463Z,4.07
2018-07-19T13:00:27.781Z,3.10
2018-07-19T13:02:55.154Z,3.30
2018-07-19T13:05:22.959Z,3.80
2018-07-19T13:07:50.409Z,3.17
2018-07-19T13:10:17.716Z,3.50
2018-07-19T13:12:45.278Z,3.07
2018-07-19T13:15:14.546Z,3.13
2018-07-19T13:17:42.330Z,3.23
2018-07-19T13:20:09.722Z,3.27
2018-07-19T13:22:37.047Z,3.20
2018-07-19T13:25:04.707Z,3.27
2018-07-19T13:27:32.614Z,4.60
2018-07-19T13:30:04.360Z,3.87
2018-07-19T13:32:31.681Z,4.50
2018-07-19T13:34:59.447Z,3.10
2018-07-19T13:37:26.792Z,3.90
2018-07-19T13:39:54.150Z,4.40
2018-07-19T13:42:23.224Z,3.30
2018-07-19T13:44:51.865Z,3.20
2018-07-19T13:47:19.173Z,2.63
2018-07-19T13:49:46.466Z,3.93
2018-07-19T13:52:14.543Z,2.90
2018-07-19T13:54:42.923Z,3.53
2018-07-19T13:57:10.926Z,3.10
2018-07-19T13:59:38.171Z,3.40
2018-07-19T14:02:06.347Z,3.40
2018-07-19T14:04:33.759Z,3.40
2018-07-19T14:07:01.085Z,3.70
2018-07-19T14:09:28.367Z,3.10
2018-07-19T14:11:55.685Z,3.80
2018-07-19T14:14:22.989Z,2.77
2018-07-19T14:16:50.291Z,3.53
2018-07-19T14:19:17.651Z,3.10
2018-07-19T14:21:44.949Z,3.37
2018-07-19T14:24:12.306Z,3.43
2018-07-19T14:26:39.654Z,3.50
2018-07-19T14:29:06.932Z,3.50
2018-07-19T14:31:34.945Z,3.07
2018-07-19T14:34:03.320Z,3.17
2018-07-19T14:36:30.666Z,3.17
2018-07-19T14:38:58.016Z,3.20
2018-07-19T14:41:25.312Z,3.13
2018-07-19T14:43:52.617Z,3.17
2018-07-19T14:46:19.891Z,3.40
2018-07-19T14:48:47.262Z,3.80
2018-07-19T14:51:14.565Z,3.27
2018-07-19T14:53:41.862Z,3.90
2018-07-19T14:56:10.648Z,3.40
2018-07-19T14:58:37.962Z,3.10
2018-07-19T15:01:05.364Z,3.53
2018-07-19T15:03:32.712Z,3.40
2018-07-19T15:06:00.054Z,3.57
2018-07-19T15:08:28.669Z,4.00
2018-07-19T15:10:58.136Z,3.40
2018-07-19T15:13:25.458Z,3.50
2018-07-19T15:15:55.712Z,3.20
2018-07-19T15:18:22.999Z,3.33
2018-07-19T15:20:50.245Z,3.63
2018-07-19T15:23:17.618Z,3.70
2018-07-19T15:25:44.874Z,3.10
2018-07-19T15:28:12.210Z,3.83
2018-07-19T15:30:39.920Z,2.90
2018-07-19T15:33:07.736Z,3.27
2018-07-19T15:35:35.037Z,3.47
2018-07-19T15:38:02.398Z,3.10
2018-07-19T15:40:29.727Z,3.37
2018-07-19T15:42:56.982Z,3.33
2018-07-19T15:45:24.471Z,3.10
2018-07-19T15:47:51.771Z,3.57
2018-07-19T15:50:19.214Z,2.97
2018-07-19T15:52:46.458Z,3.10
2018-07-19T15:55:13.860Z,2.80
2018-07-19T15:57:41.139Z,3.30
2018-07-19T16:00:08.446Z,3.27
2018-07-19T16:02:37.214Z,4.10
2018-07-19T16:05:04.678Z,3.60
2018-07-19T16:07:32.831Z,3.40
2018-07-19T16:10:00.176Z,3.77
2018-07-19T16:12:28.569Z,3.50
2018-07-19T16:14:55.898Z,3.27
2018-07-19T16:17:23.229Z,3.17
2018-07-19T16:19:50.548Z,3.70
2018-07-19T16:22:17.837Z,3.10
2018-07-19T16:24:45.731Z,3.60
2018-07-19T16:27:13.027Z,3.70
2018-07-19T16:29:42.229Z,3.30
2018-07-19T16:32:09.486Z,4.10
2018-07-19T16:34:37.391Z,2.90
2018-07-19T16:37:05.394Z,3.03
2018-07-19T16:39:33.373Z,3.63
2018-07-19T16:42:00.730Z,3.90
2018-07-19T16:44:28.545Z,5.03
2018-07-19T16:46:55.923Z,3.10
2018-07-19T16:49:23.247Z,3.10
2018-07-19T16:51:50.576Z,4.20
2018-07-19T16:54:17.963Z,3.20
2018-07-19T16:56:45.257Z,3.10
2018-07-19T16:59:12.602Z,2.90
2018-07-19T17:01:40.799Z,4.33
2018-07-19T17:04:08.317Z,5.07
2018-07-19T17:06:36.508Z,4.07
2018-07-19T17:09:06.163Z,3.27
2018-07-19T17:11:37.886Z,3.30
2018-07-19T17:14:05.295Z,3.80
2018-07-19T17:16:33.061Z,3.20
2018-07-19T17:19:00.360Z,3.90
2018-07-19T17:21:27.714Z,3.30
2018-07-19T17:23:55.134Z,3.30
2018-07-19T17:26:22.481Z,3.53
2018-07-19T17:28:49.839Z,3.60
2018-07-19T17:31:28.718Z,3.63
2018-07-19T17:34:02.799Z,3.40
2018-07-19T17:36:30.943Z,3.80
2018-07-19T17:38:58.291Z,3.47
2018-07-19T17:41:25.692Z,3.87
2018-07-19T17:43:53.063Z,3.77
2018-07-19T17:46:20.430Z,4.07
2018-07-19T17:48:47.893Z,3.60
2018-07-19T17:51:15.315Z,3.43
2018-07-19T17:53:43.483Z,3.70
2018-07-19T17:56:12.206Z,3.23
2018-07-19T17:58:39.543Z,3.40
2018-07-19T18:01:07.287Z,3.50
2018-07-19T18:03:35.411Z,4.37
2018-07-19T18:06:03.476Z,3.70
2018-07-19T18:08:31.315Z,3.60
2018-07-19T18:10:58.716Z,3.67
2018-07-19T18:13:26.578Z,4.33
2018-07-19T18:15:54.114Z,3.80
2018-07-19T18:18:22.504Z,4.80
2018-07-19T18:20:49.850Z,4.20
2018-07-19T18:23:17.282Z,3.90
2018-07-19T18:25:47.422Z,4.10
2018-07-19T18:28:14.888Z,4.30
2018-07-19T18:30:42.624Z,3.33
2018-07-19T18:33:09.944Z,3.50
2018-07-19T18:35:37.621Z,4.60
2018-07-19T18:38:06.093Z,3.70
2018-07-19T18:40:34.142Z,4.10
2018-07-19T18:43:01.492Z,3.90
2018-07-19T18:45:28.850Z,4.23
2018-07-19T18:47:56.337Z,4.03
2018-07-19T18:50:25.025Z,3.93
2018-07-19T18:52:52.380Z,3.80
2018-07-19T18:55:19.846Z,4.07
2018-07-19T18:57:49.088Z,4.47
2018-07-19T19:00:17.206Z,3.97
2018-07-19T19:02:45.008Z,4.30
2018-07-19T19:05:12.391Z,4.50
2018-07-19T19:07:39.973Z,4.70
2018-07-19T19:10:11.784Z,4.60
2018-07-19T19:12:39.205Z,4.53
2018-07-19T19:15:07.052Z,3.87
2018-07-19T19:17:34.395Z,4.43
2018-07-19T19:20:01.939Z,4.77
2018-07-19T19:22:30.383Z,4.10
2018-07-19T19:24:57.947Z,3.83
2018-07-19T19:27:29.140Z,4.10
2018-07-19T19:29:56.639Z,4.40
2018-07-19T19:32:24.076Z,4.30
2018-07-19T19:34:51.600Z,4.33
2018-07-19T19:37:19.084Z,5.10
2018-07-19T19:39:46.435Z,4.53
2018-07-19T19:42:13.841Z,4.50
2018-07-19T19:44:42.249Z,4.37
2018-07-19T19:47:09.972Z,4.80
2018-07-19T19:49:37.318Z,5.13
2018-07-19T19:52:05.523Z,4.20
2018-07-19T19:54:32.927Z,4.57
2018-07-19T19:57:00.233Z,4.10
2018-07-19T19:59:27.711Z,4.27
2018-07-19T20:01:55.334Z,4.93
2018-07-19T20:04:22.794Z,4.50
2018-07-19T20:06:50.320Z,3.77
2018-07-19T20:09:17.810Z,4.57
2018-07-19T20:11:45.875Z,3.83
2018-07-19T20:14:13.837Z,4.87
2018-07-19T20:16:45.373Z,4.10
2018-07-19T20:19:12.727Z,5.20
2018-07-19T20:21:40.553Z,4.57
2018-07-19T20:24:16.854Z,5.00
2018-07-19T20:26:44.308Z,5.47
2018-07-19T20:29:17.178Z,5.10
2018-07-19T20:31:45.660Z,5.13
2018-07-19T20:34:14.351Z,6.23
2018-07-19T20:36:41.899Z,5.00
2018-07-19T20:39:14.040Z,4.60
2018-07-19T20:41:42.492Z,5.70
2018-07-19T20:44:20.389Z,4.60
2018-07-19T20:46:55.143Z,4.53
2018-07-19T20:49:23.882Z,5.10
2018-07-19T20:51:51.627Z,4.40
2018-07-19T20:54:19.157Z,4.60
2018-07-19T20:56:46.617Z,5.07
2018-07-19T20:59:18.520Z,5.13
2018-07-19T21:01:50.243Z,4.87
2018-07-19T21:04:17.931Z,5.30
2018-07-19T21:06:45.939Z,5.60
2018-07-19T21:09:13.297Z,5.13
2018-07-19T21:11:40.786Z,5.53
2018-07-19T21:14:10.391Z,4.80
2018-07-19T21:16:38.107Z,4.80
2018-07-19T21:19:05.546Z,5.40
2018-07-19T21:21:32.980Z,5.87
2018-07-19T21:24:01.131Z,5.53
2018-07-19T21:26:29.332Z,4.80
2018-07-19T21:28:56.738Z,5.30
2018-07-19T21:31:25.484Z,5.20
2018-07-19T21:33:53.082Z,6.10
2018-07-19T21:36:20.897Z,6.00
2018-07-19T21:38:48.274Z,4.90
2018-07-19T21:41:15.767Z,5.90
2018-07-19T21:53:29.178Z,5.10
2018-07-19T21:55:57.002Z,5.40
2018-07-19T21:58:24.996Z,5.57
2018-07-19T22:00:57.794Z,5.23
2018-07-19T22:03:25.266Z,4.90
2018-07-19T22:05:53.043Z,5.90
2018-07-19T22:08:20.789Z,5.90
2018-07-19T22:10:48.151Z,5.03
2018-07-19T22:13:16.574Z,6.10
2018-07-19T22:15:43.989Z,5.67
2018-07-19T22:18:11.438Z,5.40
2018-07-19T22:20:38.916Z,5.60
2018-07-19T22:23:07.098Z,5.90
2018-07-19T22:25:35.416Z,5.57
2018-07-19T22:28:02.900Z,5.93
2018-07-19T22:30:30.557Z,5.10
2018-07-19T22:32:57.940Z,5.10
2018-07-19T22:35:25.302Z,5.33
2018-07-19T22:37:53.725Z,6.00
2018-07-19T22:40:21.387Z,5.60
2018-07-19T22:42:49.137Z,5.80
2018-07-19T22:45:17.094Z,5.60
2018-07-19T22:47:44.437Z,5.60
2018-07-19T22:50:12.511Z,6.10
2018-07-19T22:52:40.652Z,5.13
2018-07-19T22:55:08.358Z,5.90
2018-07-19T22:57:40.453Z,5.70
2018-07-19T23:00:08.135Z,4.77
2018-07-19T23:02:35.693Z,6.00
2018-07-19T23:05:03.392Z,5.07
2018-07-19T23:07:30.881Z,5.53
2018-07-19T23:09:58.517Z,5.40
2018-07-19T23:12:29.755Z,5.20
2018-07-19T23:14:57.720Z,5.37
2018-07-19T23:17:25.800Z,5.70
2018-07-19T23:19:54.155Z,5.17
2018-07-19T23:22:27.607Z,5.93
2018-07-19T23:24:55.366Z,5.43
2018-07-19T23:27:26.584Z,5.07
2018-07-19T23:29:54.175Z,5.27
2018-07-19T23:32:21.642Z,5.13
2018-07-19T23:34:49.679Z,4.83
2018-07-19T23:37:21.107Z,5.40
2018-07-19T23:39:52.647Z,5.20
2018-07-19T23:43:23.956Z,5.00
2018-07-19T23:47:06.032Z,5.63
2018-07-19T23:49:38.419Z,4.60
2018-07-19T23:52:06.494Z,4.60
2018-07-19T23:54:34.255Z,5.50
2018-07-19T23:57:01.727Z,5.60
2018-07-19T23:59:29.745Z,4.77
